createdAt,value
2023-02-02T00:01:24.413Z,23.92
2023-02-02T00:03:52.274Z,23.40
2023-02-02T00:06:19.739Z,22.90
2023-02-02T00:08:47.422Z,24.25
2023-02-02T00:11:15.009Z,25.42
2023-02-02T00:13:42.356Z,20.15
2023-02-02T00:16:36.619Z,23.40
2023-02-02T00:19:04.733Z,15.60
2023-02-02T00:21:32.022Z,19.80
2023-02-02T00:23:59.510Z,24.83
2023-02-02T00:26:28.155Z,26.73
2023-02-02T00:28:55.498Z,17.73
2023-02-02T00:31:22.931Z,22.35
2023-02-02T00:33:52.311Z,18.23
2023-02-02T00:36:20.805Z,21.25
2023-02-02T00:38:48.153Z,17.42
2023-02-02T00:41:16.279Z,19.00
2023-02-02T00:43:43.656Z,21.58
2023-02-02T00:46:13.192Z,28.02
2023-02-02T00:48:42.648Z,21.63
2023-02-02T00:51:11.670Z,14.90
2023-02-02T00:53:39.234Z,19.80
2023-02-02T00:56:06.947Z,16.27
2023-02-02T00:58:36.573Z,17.50
2023-02-02T01:01:03.912Z,17.48
2023-02-02T01:03:31.341Z,20.90
2023-02-02T01:05:58.872Z,23.92
2023-02-02T01:08:27.547Z,18.63
2023-02-02T01:10:54.847Z,25.67
2023-02-02T01:13:22.439Z,28.42
2023-02-02T01:15:49.713Z,19.10
2023-02-02T01:18:17.265Z,18.60
2023-02-02T01:20:44.823Z,22.10
2023-02-02T01:23:12.765Z,23.67
2023-02-02T01:25:41.663Z,23.02
2023-02-02T01:28:09.215Z,16.92
2023-02-02T01:30:37.014Z,19.30
2023-02-02T01:33:04.563Z,28.00
2023-02-02T01:35:32.336Z,21.05
2023-02-02T01:38:01.044Z,22.67
2023-02-02T01:40:28.432Z,20.23
2023-02-02T01:42:57.319Z,21.60
2023-02-02T01:45:26.556Z,24.58
2023-02-02T01:47:55.535Z,24.80
2023-02-02T01:50:25.309Z,20.90
2023-02-02T01:52:53.967Z,21.75
2023-02-02T01:55:22.890Z,26.42
2023-02-02T01:57:53.605Z,22.60
2023-02-02T02:00:25.296Z,22.48
2023-02-02T02:02:56.340Z,20.27
2023-02-02T02:05:26.648Z,19.77
2023-02-02T02:07:55.508Z,25.65
2023-02-02T02:10:22.876Z,23.42
2023-02-02T02:12:50.141Z,22.67
2023-02-02T02:15:35.480Z,17.73
2023-02-02T02:18:08.700Z,18.55
2023-02-02T02:21:01.985Z,18.50
2023-02-02T02:24:05.737Z,28.90
2023-02-02T02:26:54.960Z,27.05
2023-02-02T02:29:37.035Z,26.55
2023-02-02T02:32:15.971Z,24.27
2023-02-02T02:34:48.873Z,20.05
2023-02-02T02:37:19.754Z,20.02
2023-02-02T02:39:55.541Z,21.10
2023-02-02T02:42:25.218Z,21.63
2023-02-02T02:44:54.063Z,19.45
2023-02-02T02:47:23.052Z,20.98
2023-02-02T02:49:50.404Z,17.58
2023-02-02T02:52:17.699Z,28.90
2023-02-02T02:54:46.701Z,22.40
2023-02-02T02:57:22.719Z,22.42
2023-02-02T02:59:54.023Z,23.23
2023-02-02T03:02:31.767Z,15.88
2023-02-02T03:05:04.067Z,21.98
2023-02-02T03:07:36.203Z,21.40
2023-02-02T03:10:05.262Z,32.53
2023-02-02T03:12:34.346Z,13.32
2023-02-02T03:15:05.450Z,24.25
2023-02-02T03:17:34.304Z,24.23
2023-02-02T03:20:02.277Z,19.52
2023-02-02T03:22:29.565Z,24.10
2023-02-02T03:24:59.376Z,24.75
2023-02-02T03:27:26.973Z,27.83
2023-02-02T03:29:54.522Z,24.48
2023-02-02T03:32:22.373Z,17.33
2023-02-02T03:34:51.037Z,23.30
2023-02-02T03:37:18.285Z,26.13
2023-02-02T03:39:45.570Z,25.40
2023-02-02T03:42:12.937Z,22.13
2023-02-02T03:44:43.814Z,24.45
2023-02-02T03:47:11.098Z,27.02
2023-02-02T03:49:38.409Z,29.77
2023-02-02T03:52:07.213Z,22.13
2023-02-02T03:54:35.054Z,25.30
2023-02-02T03:57:02.350Z,22.63
2023-02-02T03:59:29.682Z,22.75
2023-02-02T04:01:57.307Z,23.45
2023-02-02T04:04:24.780Z,26.60
2023-02-02T04:06:52.047Z,31.85
2023-02-02T04:09:20.867Z,21.80
2023-02-02T04:11:48.405Z,28.90
2023-02-02T04:14:15.711Z,29.13
2023-02-02T04:16:43.017Z,22.50
2023-02-02T04:19:12.892Z,19.80
2023-02-02T04:21:40.998Z,30.30
2023-02-02T04:24:11.174Z,27.70
2023-02-02T04:26:39.882Z,22.77
2023-02-02T04:29:10.125Z,22.77
2023-02-02T04:31:37.706Z,29.27
2023-02-02T04:34:05.141Z,18.58
2023-02-02T04:36:32.444Z,24.85
2023-02-02T04:38:59.775Z,30.20
2023-02-02T04:41:27.101Z,27.85
2023-02-02T04:43:55.774Z,19.48
2023-02-02T04:46:23.075Z,30.42
2023-02-02T04:48:50.777Z,29.15
2023-02-02T04:51:18.625Z,34.75
2023-02-02T04:53:46.406Z,27.42
2023-02-02T04:56:14.467Z,23.73
2023-02-02T04:58:42.014Z,31.35
2023-02-02T05:01:11.238Z,29.00
2023-02-02T05:03:38.804Z,33.33
2023-02-02T05:06:06.619Z,25.70
2023-02-02T05:08:36.232Z,32.72
2023-02-02T05:11:07.164Z,30.33
2023-02-02T05:13:34.482Z,29.60
2023-02-02T05:16:02.088Z,25.98
2023-02-02T05:18:31.487Z,30.58
2023-02-02T05:21:00.550Z,25.70
2023-02-02T05:23:27.974Z,32.28
2023-02-02T05:25:56.225Z,27.95
2023-02-02T05:28:23.992Z,31.67
2023-02-02T05:30:51.705Z,21.23
2023-02-02T05:33:19.646Z,26.08
2023-02-02T05:35:48.659Z,25.88
2023-02-02T05:38:16.979Z,27.95
2023-02-02T05:40:44.267Z,27.23
2023-02-02T05:43:11.831Z,24.25
2023-02-02T05:45:39.334Z,31.90
2023-02-02T05:48:07.036Z,29.67
2023-02-02T05:50:34.323Z,29.00
2023-02-02T05:53:03.281Z,32.25
2023-02-02T05:55:31.257Z,32.08
2023-02-02T05:57:59.237Z,23.48
2023-02-02T06:00:26.652Z,35.97
2023-02-02T06:02:54.735Z,32.08
2023-02-02T06:05:22.317Z,31.58
2023-02-02T06:07:49.742Z,28.88
2023-02-02T06:10:18.504Z,30.90
2023-02-02T06:12:45.768Z,25.15
2023-02-02T06:15:13.081Z,33.28
2023-02-02T06:17:40.387Z,28.05
2023-02-02T06:20:08.022Z,36.95
2023-02-02T06:22:35.689Z,38.65
2023-02-02T06:25:05.411Z,24.17
2023-02-02T06:27:34.314Z,28.80
2023-02-02T06:30:01.631Z,30.23
2023-02-02T06:32:29.722Z,30.85
2023-02-02T06:34:57.019Z,20.90
2023-02-02T06:37:24.333Z,26.00
2023-02-02T06:39:52.485Z,29.20
2023-02-02T06:42:21.943Z,25.27
2023-02-02T06:44:50.767Z,24.30
2023-02-02T06:47:20.435Z,32.05
2023-02-02T06:49:48.083Z,28.30
2023-02-02T06:52:15.426Z,32.72
2023-02-02T06:54:42.751Z,21.20
2023-02-02T06:57:10.574Z,29.90
2023-02-02T06:59:38.185Z,20.83
2023-02-02T07:02:07.055Z,28.35
2023-02-02T07:04:34.366Z,31.58
2023-02-02T07:07:01.696Z,25.60
2023-02-02T07:09:29.225Z,25.73
2023-02-02T07:11:57.188Z,19.92
2023-02-02T07:14:25.329Z,22.90
2023-02-02T07:16:52.930Z,28.25
2023-02-02T07:19:21.583Z,34.22
2023-02-02T07:21:48.883Z,27.38
2023-02-02T07:24:16.192Z,32.53
2023-02-02T07:26:43.676Z,28.65
2023-02-02T07:29:12.909Z,24.17
2023-02-02T07:31:40.246Z,27.85
2023-02-02T07:34:07.677Z,23.55
2023-02-02T07:36:36.656Z,19.83
2023-02-02T07:39:05.299Z,28.42
2023-02-02T07:41:33.142Z,26.75
2023-02-02T07:44:00.450Z,22.42
2023-02-02T07:46:27.887Z,25.52
2023-02-02T07:48:56.257Z,41.00
2023-02-02T07:51:24.498Z,30.23
2023-02-02T07:53:54.141Z,24.73
2023-02-02T07:56:22.721Z,26.60
2023-02-02T07:58:52.269Z,27.17
2023-02-02T08:01:20.194Z,30.05
2023-02-02T08:03:48.275Z,24.98
2023-02-02T08:06:16.698Z,34.90
2023-02-02T08:08:44.547Z,22.90
2023-02-02T08:11:14.608Z,26.20
2023-02-02T08:13:42.661Z,34.92
2023-02-02T08:16:10.202Z,29.38
2023-02-02T08:18:38.334Z,37.72
2023-02-02T08:21:06.420Z,26.33
2023-02-02T08:23:33.754Z,28.88
2023-02-02T08:26:06.636Z,24.10
2023-02-02T08:28:36.310Z,24.88
2023-02-02T08:31:07.812Z,27.73
2023-02-02T08:33:36.214Z,31.83
2023-02-02T08:36:05.820Z,29.92
2023-02-02T08:38:33.381Z,34.33
2023-02-02T08:41:05.186Z,30.30
2023-02-02T08:43:32.531Z,27.48
2023-02-02T08:46:05.216Z,30.10
2023-02-02T08:48:32.979Z,39.00
2023-02-02T08:51:00.551Z,25.30
2023-02-02T08:53:28.282Z,26.80
2023-02-02T08:55:59.210Z,29.20
2023-02-02T08:58:36.847Z,19.50
2023-02-02T09:01:09.460Z,31.25
2023-02-02T09:03:39.108Z,27.50
2023-02-02T09:06:07.059Z,27.35
2023-02-02T09:08:34.511Z,29.83
2023-02-02T09:11:05.812Z,23.25
2023-02-02T09:13:36.209Z,21.42
2023-02-02T09:16:04.596Z,30.83
2023-02-02T09:18:35.907Z,20.70
2023-02-02T09:21:04.112Z,23.73
2023-02-02T09:23:31.889Z,27.10
2023-02-02T09:26:07.332Z,28.50
2023-02-02T09:28:34.922Z,26.60
2023-02-02T09:31:02.403Z,26.40
2023-02-02T09:33:29.774Z,28.35
2023-02-02T09:36:04.973Z,28.55
2023-02-02T09:51:14.506Z,19.75
2023-02-02T09:53:55.209Z,20.27
2023-02-02T09:56:25.362Z,22.45
2023-02-02T09:58:54.473Z,22.85
2023-02-02T10:01:23.831Z,18.75
2023-02-02T10:03:57.779Z,24.77
2023-02-02T10:06:29.349Z,29.97
2023-02-02T10:08:58.669Z,21.75
2023-02-02T10:11:32.434Z,19.05
2023-02-02T10:14:02.397Z,25.58
2023-02-02T10:16:30.801Z,23.33
2023-02-02T10:19:00.134Z,28.90
2023-02-02T10:21:33.367Z,28.45
2023-02-02T10:24:02.963Z,29.52
2023-02-02T10:26:35.931Z,22.67
2023-02-02T10:29:07.734Z,26.23
2023-02-02T10:31:39.997Z,17.17
2023-02-02T10:34:10.630Z,26.65
2023-02-02T10:36:45.693Z,24.80
2023-02-02T10:39:18.294Z,20.05
2023-02-02T10:56:36.715Z,23.88
2023-02-02T10:59:06.667Z,19.92
2023-02-02T11:01:34.161Z,24.65
2023-02-02T11:04:18.941Z,23.45
2023-02-02T11:06:52.260Z,15.75
2023-02-02T11:09:21.199Z,21.15
2023-02-02T11:11:52.745Z,23.30
2023-02-02T11:14:23.108Z,19.45
2023-02-02T11:17:01.269Z,27.15
2023-02-02T11:19:29.937Z,30.20
2023-02-02T11:21:58.544Z,19.13
2023-02-02T11:24:28.446Z,27.73
2023-02-02T11:26:58.922Z,19.08
2023-02-02T11:29:28.640Z,18.73
2023-02-02T11:31:56.626Z,24.55
2023-02-02T11:34:24.788Z,18.83
2023-02-02T11:36:59.608Z,22.75
2023-02-02T11:42:06.056Z,17.30
2023-02-02T11:44:35.451Z,13.00
2023-02-02T11:47:04.609Z,17.73
2023-02-02T11:49:33.398Z,16.63
2023-02-02T11:52:01.849Z,23.83
2023-02-02T11:54:30.150Z,20.65
2023-02-02T11:56:59.382Z,19.50
2023-02-02T11:59:30.232Z,21.27
2023-02-02T12:02:31.029Z,16.30
2023-02-02T12:05:14.434Z,22.10
2023-02-02T12:07:42.223Z,18.60
2023-02-02T12:10:15.038Z,22.45
2023-02-02T12:12:46.219Z,14.15
2023-02-02T12:15:23.736Z,20.10
2023-02-02T12:17:53.238Z,14.75
2023-02-02T12:20:23.810Z,20.08
2023-02-02T12:22:57.358Z,17.77
2023-02-02T12:25:35.183Z,25.40
2023-02-02T12:28:06.221Z,16.98
2023-02-02T12:30:40.304Z,18.55
2023-02-02T12:33:14.806Z,15.82
2023-02-02T12:35:49.225Z,18.15
2023-02-02T12:38:20.334Z,16.23
2023-02-02T12:40:55.925Z,21.05
2023-02-02T12:43:27.337Z,20.83
2023-02-02T12:46:11.950Z,19.17
2023-02-02T12:48:43.241Z,16.40
2023-02-02T12:51:16.441Z,25.15
2023-02-02T12:54:34.922Z,12.27
2023-02-02T12:56:43.819Z,15.75
2023-02-02T12:59:18.175Z,15.95
2023-02-02T13:01:54.127Z,15.90
2023-02-02T13:04:31.799Z,15.63
2023-02-02T13:07:26.302Z,15.90
2023-02-02T13:09:59.804Z,17.27
2023-02-02T13:12:27.623Z,18.48
2023-02-02T13:14:56.767Z,12.25
2023-02-02T13:17:27.606Z,11.73
2023-02-02T13:19:57.036Z,15.98
2023-02-02T13:22:26.052Z,13.15
2023-02-02T13:24:54.937Z,10.93
2023-02-02T13:27:22.695Z,12.07
2023-02-02T13:29:53.014Z,12.88
2023-02-02T13:32:24.323Z,12.70
2023-02-02T13:34:54.477Z,14.32
2023-02-02T13:37:26.114Z,17.05
2023-02-02T13:39:56.930Z,7.07
2023-02-02T13:42:29.057Z,12.25
2023-02-02T13:44:58.316Z,10.50
2023-02-02T13:47:28.953Z,14.07
2023-02-02T13:50:04.397Z,11.35
2023-02-02T13:52:42.693Z,14.32
2023-02-02T13:55:32.336Z,14.18
2023-02-02T13:58:20.513Z,10.27
2023-02-02T14:00:49.400Z,12.48
2023-02-02T14:03:33.655Z,13.77
2023-02-02T14:06:06.903Z,7.23
2023-02-02T14:08:34.235Z,11.43
2023-02-02T14:11:03.321Z,12.65
2023-02-02T14:13:51.946Z,9.90
2023-02-02T14:16:25.640Z,10.75
2023-02-02T14:18:56.205Z,15.43
2023-02-02T14:21:42.128Z,12.32
2023-02-02T14:24:24.437Z,12.82
2023-02-02T14:26:54.078Z,12.18
2023-02-02T14:29:40.500Z,12.65
2023-02-02T14:32:22.691Z,14.80
2023-02-02T14:34:50.367Z,12.07
2023-02-02T14:37:38.554Z,13.88
2023-02-02T14:40:20.819Z,16.92
2023-02-02T14:43:19.944Z,8.60
2023-02-02T14:45:51.115Z,13.07
2023-02-02T14:48:19.712Z,11.52
2023-02-02T14:50:49.373Z,11.80
2023-02-02T14:53:20.109Z,9.15
2023-02-02T14:55:53.840Z,9.13
2023-02-02T14:58:25.678Z,13.20
2023-02-02T15:00:57.267Z,9.15
2023-02-02T15:03:35.718Z,10.25
2023-02-02T15:06:04.221Z,10.02
2023-02-02T15:08:31.642Z,9.30
2023-02-02T15:11:01.059Z,13.38
2023-02-02T15:13:37.305Z,12.65
2023-02-02T15:16:09.622Z,5.93
2023-02-02T15:18:41.983Z,10.52
2023-02-02T15:21:13.722Z,15.63
2023-02-02T15:23:42.144Z,13.30
2023-02-02T15:26:13.102Z,13.30
2023-02-02T15:28:44.416Z,11.35
2023-02-02T15:31:16.078Z,7.93
2023-02-02T15:33:44.727Z,10.95
2023-02-02T15:36:14.612Z,17.85
2023-02-02T15:38:42.938Z,11.35
2023-02-02T15:41:15.314Z,9.75
2023-02-02T15:43:44.122Z,10.57
2023-02-02T15:46:13.351Z,12.18
2023-02-02T15:48:40.901Z,11.50
2023-02-02T15:51:15.238Z,11.50
2023-02-02T15:53:49.722Z,9.52
2023-02-02T15:56:21.464Z,10.95
2023-02-02T15:58:53.429Z,12.13
2023-02-02T16:01:21.909Z,11.73
2023-02-02T16:03:51.128Z,8.10
2023-02-02T16:06:19.095Z,12.32
2023-02-02T16:08:49.397Z,9.85
2023-02-02T16:11:18.104Z,9.27
2023-02-02T16:13:53.946Z,9.20
2023-02-02T16:16:24.042Z,10.25
2023-02-02T16:19:02.559Z,11.15
2023-02-02T16:21:32.972Z,7.55
2023-02-02T16:24:01.135Z,8.52
2023-02-02T16:26:29.896Z,11.40
2023-02-02T16:28:57.527Z,11.00
2023-02-02T16:31:28.208Z,12.02
2023-02-02T16:33:59.631Z,8.38
2023-02-02T16:36:29.578Z,13.45
2023-02-02T16:38:57.786Z,10.85
2023-02-02T16:41:29.554Z,8.52
2023-02-02T16:43:56.939Z,8.65
2023-02-02T16:46:45.521Z,13.73
2023-02-02T16:49:17.796Z,10.30
2023-02-02T16:51:46.285Z,10.90
2023-02-02T16:54:18.735Z,7.78
2023-02-02T16:56:47.589Z,7.60
2023-02-02T16:59:18.237Z,10.93
2023-02-02T17:01:50.364Z,10.43
2023-02-02T17:04:19.810Z,8.27
2023-02-02T17:06:52.677Z,10.50
2023-02-02T17:09:28.753Z,9.45
2023-02-02T17:11:57.782Z,9.80
2023-02-02T17:14:28.853Z,10.77
2023-02-02T17:16:57.849Z,11.25
2023-02-02T17:19:25.175Z,10.48
2023-02-02T17:21:52.523Z,9.15
2023-02-02T17:24:19.863Z,11.35
2023-02-02T17:26:48.157Z,5.25
2023-02-02T17:29:16.918Z,10.13
2023-02-02T17:31:44.524Z,12.10
2023-02-02T17:34:15.891Z,7.18
2023-02-02T17:36:43.588Z,11.25
2023-02-02T17:39:11.759Z,9.93
2023-02-02T17:41:40.083Z,12.02
2023-02-02T17:44:09.180Z,12.65
2023-02-02T17:46:39.790Z,10.48
2023-02-02T17:49:07.436Z,15.77
2023-02-02T17:51:41.091Z,12.85
2023-02-02T17:54:10.851Z,16.98
2023-02-02T17:56:39.816Z,9.95
2023-02-02T17:59:09.565Z,12.88
2023-02-02T18:01:39.325Z,15.18
2023-02-02T18:04:06.811Z,16.73
2023-02-02T18:06:34.141Z,21.25
2023-02-02T18:09:02.944Z,16.75
2023-02-02T18:11:30.308Z,22.17
2023-02-02T18:13:57.611Z,20.75
2023-02-02T18:16:27.317Z,18.38
2023-02-02T18:18:55.236Z,20.98
2023-02-02T18:21:22.781Z,24.23
2023-02-02T18:23:50.117Z,21.08
2023-02-02T18:26:21.999Z,21.45
2023-02-02T18:28:49.638Z,16.10
2023-02-02T18:31:19.271Z,17.77
2023-02-02T18:33:47.371Z,19.73
2023-02-02T18:36:15.443Z,20.23
2023-02-02T18:38:45.115Z,15.48
2023-02-02T18:41:12.781Z,17.38
2023-02-02T18:43:41.659Z,15.70
2023-02-02T18:46:11.182Z,14.80
2023-02-02T18:48:38.515Z,15.43
2023-02-02T18:51:07.123Z,19.67
2023-02-02T18:53:34.871Z,17.75
2023-02-02T18:56:04.754Z,16.55
2023-02-02T18:58:33.520Z,17.77
2023-02-02T19:01:08.142Z,17.77
2023-02-02T19:03:36.601Z,23.50
2023-02-02T19:06:21.460Z,21.02
2023-02-02T19:08:48.858Z,15.60
2023-02-02T19:11:18.364Z,15.90
2023-02-02T19:13:46.074Z,15.40
2023-02-02T19:16:18.215Z,19.75
2023-02-02T19:18:46.292Z,15.70
2023-02-02T19:21:14.388Z,18.30
2023-02-02T19:23:42.578Z,17.60
2023-02-02T19:26:18.297Z,20.77
2023-02-02T19:28:45.952Z,15.93
2023-02-02T19:31:14.917Z,15.52
2023-02-02T19:33:45.165Z,14.25
2023-02-02T19:36:16.636Z,16.13
2023-02-02T19:38:43.999Z,20.92
2023-02-02T19:41:16.774Z,15.55
2023-02-02T19:43:47.544Z,17.52
2023-02-02T19:46:22.150Z,17.85
2023-02-02T19:48:52.402Z,17.42
2023-02-02T19:51:41.668Z,18.52
2023-02-02T19:54:18.529Z,21.80
2023-02-02T19:56:45.897Z,15.13
2023-02-02T19:59:17.497Z,19.85
2023-02-02T20:01:45.858Z,14.27
2023-02-02T20:04:15.796Z,24.17
2023-02-02T20:06:58.032Z,14.23
2023-02-02T20:09:28.877Z,22.30
2023-02-02T20:11:58.318Z,20.05
2023-02-02T20:14:29.949Z,15.55
2023-02-02T20:17:00.756Z,15.43
2023-02-02T20:19:31.153Z,19.50
2023-02-02T20:21:58.576Z,17.52
2023-02-02T20:24:28.149Z,22.13
2023-02-02T20:26:56.660Z,25.08
2023-02-02T20:29:24.948Z,21.52
2023-02-02T20:31:54.321Z,17.90
2023-02-02T20:34:24.204Z,17.63
2023-02-02T20:36:53.722Z,20.80
2023-02-02T20:39:28.977Z,19.20
2023-02-02T20:41:57.224Z,23.08
2023-02-02T20:44:24.738Z,21.25
2023-02-02T20:46:52.332Z,14.35
2023-02-02T20:49:20.591Z,15.20
2023-02-02T20:51:48.161Z,17.73
2023-02-02T20:54:16.839Z,17.88
2023-02-02T20:56:44.223Z,15.60
2023-02-02T20:59:11.542Z,19.77
2023-02-02T21:01:39.017Z,16.45
2023-02-02T21:04:07.116Z,16.35
2023-02-02T21:06:34.714Z,23.15
2023-02-02T21:09:02.344Z,16.95
2023-02-02T21:11:31.116Z,20.90
2023-02-02T21:13:59.216Z,17.08
2023-02-02T21:16:27.224Z,17.98
2023-02-02T21:18:54.632Z,19.17
2023-02-02T21:21:22.480Z,22.75
2023-02-02T21:23:51.337Z,15.15
2023-02-02T21:26:19.836Z,17.90
2023-02-02T21:28:48.938Z,16.08
2023-02-02T21:31:17.404Z,18.38
2023-02-02T21:33:45.687Z,15.50
2023-02-02T21:36:27.546Z,19.88
2023-02-02T21:38:55.532Z,16.75
2023-02-02T21:41:22.945Z,16.48
2023-02-02T21:43:51.611Z,17.55
2023-02-02T21:46:20.051Z,16.05
2023-02-02T21:48:48.720Z,22.27
2023-02-02T21:51:23.800Z,14.13
2023-02-02T21:53:51.418Z,18.17
2023-02-02T21:56:26.740Z,16.40
2023-02-02T21:58:58.056Z,17.73
2023-02-02T22:01:29.709Z,15.75
2023-02-02T22:03:57.071Z,13.07
2023-02-02T22:06:25.855Z,17.55
2023-02-02T22:08:54.395Z,16.67
2023-02-02T22:11:29.273Z,15.75
2023-02-02T22:14:01.813Z,17.00
2023-02-02T22:16:29.405Z,14.45
2023-02-02T22:18:56.746Z,17.33
2023-02-02T22:21:24.557Z,18.65
2023-02-02T22:23:51.937Z,16.85
2023-02-02T22:26:24.311Z,15.63
2023-02-02T22:28:51.629Z,14.68
2023-02-02T22:31:20.410Z,14.18
2023-02-02T22:33:47.839Z,12.02
2023-02-02T22:36:15.143Z,14.40
2023-02-02T22:38:42.450Z,13.60
2023-02-02T22:41:09.807Z,16.50
2023-02-02T22:43:37.155Z,15.73
2023-02-02T22:46:04.678Z,15.02
2023-02-02T22:48:33.432Z,13.93
2023-02-02T22:51:00.784Z,18.17
2023-02-02T22:53:28.177Z,19.90
2023-02-02T22:55:57.440Z,12.75
2023-02-02T22:58:25.458Z,15.57
2023-02-02T23:00:53.017Z,18.58
2023-02-02T23:03:20.345Z,17.30
2023-02-02T23:05:49.006Z,20.95
2023-02-02T23:08:18.495Z,18.35
2023-02-02T23:10:46.281Z,19.08
2023-02-02T23:13:13.670Z,16.73
2023-02-02T23:15:41.393Z,12.05
2023-02-02T23:18:08.996Z,14.05
2023-02-02T23:20:36.320Z,20.17
2023-02-02T23:23:04.945Z,23.52
2023-02-02T23:25:32.275Z,21.38
2023-02-02T23:27:59.892Z,20.70
2023-02-02T23:30:27.842Z,13.63
2023-02-02T23:32:55.347Z,18.40
2023-02-02T23:35:22.647Z,19.95
2023-02-02T23:37:50.236Z,14.60
2023-02-02T23:40:19.189Z,15.15
2023-02-02T23:42:46.512Z,14.48
2023-02-02T23:45:16.247Z,20.77
2023-02-02T23:47:43.908Z,13.00
2023-02-02T23:50:12.190Z,15.60
2023-02-02T23:52:40.218Z,20.13
2023-02-02T23:55:08.261Z,18.85
2023-02-02T23:57:37.341Z,18.08
